Aérodrome :







RETROUVEZ-NOUS SUR...

 
LOGIN :

S'inscrire | Disclaimer

   EN    FR    IT 

 









Légende :    VFR   VFR Marginal   IFR   IFR Intensif   IFR Très Intensif
Visi : 
Plafond : 
>= 8 km
>= 3000ft
5 à 8 km
1000 à 3000 ft
1500m à 5 km
500 à 1000 ft
800 à 1500m
200 à 500 ft
< 800m
< 200 ft
Symboles :   Orages  Brouillard  Fortes neiges  Fortes précipitations  Vent > 20 kt






- Altitude de l'aérodrome : 1074 ft


KHIE - Mount Washington Regional

DERNIER METAR :
  • 020652Z AUTO 00000KT 10SM BKN016 OVC028 02/M02 A2972 RMK AO2 SLP075 T00171017

METARs EXPIRÉS :
  • 020552Z AUTO VRB04KT 10SM OVC026 02/M02 A2974 RMK AO2 SLP081 T00171017 10039 20017 58008
  • 020452Z AUTO 00000KT 10SM OVC027 02/M02 A2975 RMK AO2 SLP085 T00221017 400671067

TAF KHIE
Valide du 02 à 06h jusqu'au 03 à 06h UTC


020538Z 0206/0306 VRB04KT P6SM OVC025
FM021100 32006KT 2SM -SN OVC015
FM021300 31006KT 3SM -RASN OVC015
FM021600 33006KT 1 1/2SM RA OVC008



MET'MAP, la Météo Aéronautique d'un coup d'oeil ! - Copyright ORBIFLY Décembre 2007 - Disclaimer

ORBIFLY MET'MAP TEAM :

Programmation & Développement : Alexandra Zaïnal
Sur une idée originale de : Baudouin d'Aumeries
Assistance à la programmation : Marc-Olivier Méhu
Soutien technique & logistique : Manuel Goepfert

Contact : metmap@orbifly.com




SOURCES & CREDITS :

   NOAA